createdAt,value
2023-08-10T00:03:42.444Z,52289.72
2023-08-10T00:08:46.402Z,52237.72
2023-08-10T00:13:50.140Z,52289.72
2023-08-10T00:18:56.082Z,52215.72
2023-08-10T00:23:59.884Z,52249.72
2023-08-10T00:29:03.794Z,52289.72
2023-08-10T00:34:08.906Z,52277.72
2023-08-10T00:39:12.679Z,52261.72
2023-08-10T00:44:17.622Z,52259.72
2023-08-10T00:49:23.209Z,52259.72
2023-08-10T00:54:27.135Z,52351.72
2023-08-10T00:59:32.549Z,52333.72
2023-08-10T01:04:37.651Z,52361.72
2023-08-10T01:09:49.302Z,52423.72
2023-08-10T01:15:01.040Z,52465.72
2023-08-10T01:20:09.768Z,52449.72
2023-08-10T01:25:15.924Z,52409.72
2023-08-10T01:30:20.724Z,52471.72
2023-08-10T01:35:25.965Z,52457.72
2023-08-10T01:40:31.575Z,52447.72
2023-08-10T01:45:35.295Z,52443.72
2023-08-10T01:50:42.616Z,52455.72
2023-08-10T01:55:49.132Z,52471.72
2023-08-10T02:00:53.616Z,52483.72
2023-08-10T02:05:57.358Z,52513.72
2023-08-10T02:11:02.489Z,52507.72
2023-08-10T02:16:06.494Z,52485.72
2023-08-10T02:21:10.227Z,52525.72
2023-08-10T02:26:15.655Z,52533.72
2023-08-10T02:31:19.365Z,52553.72
2023-08-10T02:36:23.132Z,52473.72
2023-08-10T02:41:28.180Z,52537.72
2023-08-10T02:46:31.923Z,52545.72
2023-08-10T02:51:35.695Z,52539.72
2023-08-10T02:56:40.793Z,52553.72
2023-08-10T03:07:31.950Z,52613.75
2023-08-10T03:12:37.210Z,52579.75
2023-08-10T03:17:42.261Z,52571.75
2023-08-10T03:22:47.506Z,52577.75
2023-08-10T03:27:53.068Z,52591.75
2023-08-10T03:32:59.005Z,52539.72
2023-08-10T03:38:02.955Z,52529.72
2023-08-10T03:43:08.288Z,52501.72
2023-08-10T03:48:12.368Z,52511.72
2023-08-10T03:53:16.766Z,52485.72
2023-08-10T03:58:23.304Z,52525.72
2023-08-10T04:03:27.797Z,52509.72
2023-08-10T04:08:31.682Z,52559.72
2023-08-10T04:13:36.772Z,52543.72
2023-08-10T04:18:40.583Z,52567.72
2023-08-10T04:23:44.363Z,52559.72
2023-08-10T04:28:49.330Z,52577.75
2023-08-10T04:33:53.062Z,52605.75
2023-08-10T04:38:56.915Z,52633.75
2023-08-10T04:44:01.972Z,52613.75
2023-08-10T04:49:07.103Z,52583.75
2023-08-10T04:54:10.984Z,52633.75
2023-08-10T04:59:16.159Z,52663.75
2023-08-10T05:04:19.883Z,52665.75
2023-08-10T05:09:23.497Z,52673.75
2023-08-10T05:14:28.613Z,52729.75
2023-08-10T05:19:32.355Z,52769.75
2023-08-10T05:24:36.074Z,52805.78
2023-08-10T05:29:41.168Z,52763.75
2023-08-10T05:34:44.862Z,52845.78
2023-08-10T05:39:48.533Z,52837.78
2023-08-10T05:44:53.733Z,52829.78
2023-08-10T05:49:57.315Z,52819.78
2023-08-10T05:55:01.064Z,52949.81
2023-08-10T06:00:07.288Z,52815.78
2023-08-10T06:05:16.611Z,52891.78
2023-08-10T06:10:21.004Z,52929.78
2023-08-10T06:15:26.453Z,52833.78
2023-08-10T06:20:30.087Z,52999.81
2023-08-10T06:25:34.049Z,53015.81
2023-08-10T06:30:39.148Z,53353.91
2023-08-10T06:35:42.916Z,54050.19
2023-08-10T06:40:46.740Z,54428.41
2023-08-10T06:45:51.739Z,54424.41
2023-08-10T06:50:55.536Z,54718.59
2023-08-10T06:55:59.591Z,54662.56
2023-08-10T07:01:04.952Z,54276.31
2023-08-10T07:06:09.560Z,54246.31
2023-08-10T07:11:13.339Z,55703.38
2023-08-10T07:16:19.047Z,55535.22
2023-08-10T07:21:23.564Z,56668.38
2023-08-10T07:26:27.562Z,57890.00
2023-08-10T07:31:34.135Z,56019.69
2023-08-10T07:36:37.930Z,53946.16
2023-08-10T07:41:41.657Z,54282.31
2023-08-10T07:46:48.283Z,54954.75
2023-08-10T07:51:52.018Z,55098.88
2023-08-10T07:56:55.857Z,53680.03
2023-08-10T08:02:01.094Z,52833.78
2023-08-10T08:07:04.916Z,52887.78
2023-08-10T08:12:08.894Z,52811.78
2023-08-10T08:17:13.927Z,52535.72
2023-08-10T08:22:17.571Z,52465.72
2023-08-10T08:27:21.251Z,52415.72
2023-08-10T08:32:42.955Z,52375.72
2023-08-10T08:37:49.920Z,52503.72
2023-08-10T08:42:54.816Z,54344.34
2023-08-10T08:48:00.437Z,55525.22
2023-08-10T08:53:07.306Z,55675.34
2023-08-10T08:58:11.318Z,55425.13
2023-08-10T09:03:17.205Z,55435.13
2023-08-10T09:08:22.901Z,54370.38
2023-08-10T09:13:26.616Z,53842.09
2023-08-10T09:18:34.820Z,53259.88
2023-08-10T09:23:38.554Z,52681.75
2023-08-10T09:28:42.301Z,52565.72
2023-08-10T09:33:47.351Z,52411.72
2023-08-10T09:38:52.241Z,52909.78
2023-08-10T09:43:56.026Z,53113.84
2023-08-10T09:49:02.375Z,53027.81
2023-08-10T09:54:06.763Z,53405.94
2023-08-10T09:59:10.622Z,53634.00
2023-08-10T10:04:16.621Z,53253.88
2023-08-10T10:09:20.562Z,53361.91
2023-08-10T10:14:24.926Z,53880.13
2023-08-10T10:19:30.431Z,53810.09
2023-08-10T10:24:34.307Z,53592.00
2023-08-10T10:29:39.435Z,53636.00
2023-08-10T10:34:45.400Z,53545.97
2023-08-10T10:39:52.264Z,53656.03
2023-08-10T10:45:07.727Z,53642.03
2023-08-10T10:50:18.613Z,53796.09
2023-08-10T10:55:22.847Z,53800.09
2023-08-10T11:00:26.649Z,53594.00
2023-08-10T11:05:31.815Z,53792.09
2023-08-10T11:10:37.685Z,53582.00
2023-08-10T11:15:41.573Z,53429.94
2023-08-10T11:20:49.067Z,53327.91
2023-08-10T11:25:53.566Z,53463.94
2023-08-10T11:31:04.568Z,53193.88
2023-08-10T11:36:09.867Z,53221.88
2023-08-10T11:41:14.212Z,52885.78
2023-08-10T11:46:21.857Z,53055.81
2023-08-10T11:51:34.061Z,53461.94
2023-08-10T11:56:46.685Z,53748.06
2023-08-10T12:01:54.596Z,53776.06
2023-08-10T12:07:01.442Z,53830.09
2023-08-10T12:12:06.770Z,54024.19
2023-08-10T12:17:11.451Z,53834.09
2023-08-10T12:22:16.671Z,53632.00
2023-08-10T12:27:20.536Z,53339.91
2023-08-10T12:32:24.774Z,53734.06
2023-08-10T12:37:30.620Z,53866.13
2023-08-10T12:42:35.131Z,53551.97
2023-08-10T12:47:39.574Z,52995.81
2023-08-10T12:52:46.849Z,53281.88
2023-08-10T12:57:50.771Z,53491.97
2023-08-10T13:02:54.913Z,53285.88
2023-08-10T13:08:00.277Z,52725.75
2023-08-10T13:13:04.350Z,52509.72
2023-08-10T13:18:09.504Z,52419.72
2023-08-10T13:23:14.650Z,53305.91
2023-08-10T13:28:18.301Z,53253.88
2023-08-10T13:33:22.070Z,52965.81
2023-08-10T13:38:27.262Z,52427.72
2023-08-10T13:43:31.399Z,52557.72
2023-08-10T13:48:35.657Z,52293.72
2023-08-10T13:53:40.924Z,51961.69
2023-08-10T13:58:44.649Z,52511.72
2023-08-10T14:03:48.820Z,54370.38
2023-08-10T14:08:55.220Z,55359.06
2023-08-10T14:13:58.993Z,56528.22
2023-08-10T14:19:02.768Z,55014.81
2023-08-10T14:24:08.898Z,53275.88
2023-08-10T14:29:12.704Z,52605.75
2023-08-10T14:34:17.351Z,51979.69
2023-08-10T14:39:22.949Z,52057.69
2023-08-10T14:44:26.810Z,52009.69
2023-08-10T14:49:30.704Z,51961.69
2023-08-10T14:54:35.779Z,52195.72
2023-08-10T14:59:39.646Z,52415.72
2023-08-10T15:04:43.403Z,53063.81
2023-08-10T15:09:48.621Z,53515.97
2023-08-10T15:14:52.405Z,54074.22
2023-08-10T15:19:56.081Z,53491.97
2023-08-10T15:25:01.134Z,52493.72
2023-08-10T15:30:05.450Z,52115.69
2023-08-10T15:35:11.220Z,51913.72
2023-08-10T15:40:16.375Z,51767.72
2023-08-10T15:45:20.953Z,51763.72
2023-08-10T15:50:24.697Z,51901.72
2023-08-10T15:55:29.719Z,51775.72
2023-08-10T16:00:33.466Z,51701.72
2023-08-10T16:05:37.190Z,51679.72
2023-08-10T16:10:42.339Z,51637.72
2023-08-10T16:15:47.351Z,51665.72
2023-08-10T16:20:51.228Z,51585.72
2023-08-10T16:25:57.885Z,51645.72
2023-08-10T16:31:01.949Z,51565.72
2023-08-10T16:36:06.123Z,51527.75
2023-08-10T16:41:11.414Z,51517.75
2023-08-10T16:46:15.196Z,51527.75
2023-08-10T16:51:19.022Z,51491.75
2023-08-10T16:56:24.696Z,51431.75
2023-08-10T17:01:28.457Z,51433.75
2023-08-10T17:06:32.149Z,51433.75
2023-08-10T17:11:37.198Z,51413.75
2023-08-10T17:16:41.004Z,51389.75
2023-08-10T17:21:44.877Z,51371.75
2023-08-10T17:26:50.253Z,51381.75
2023-08-10T17:31:53.890Z,51325.78
2023-08-10T17:36:57.565Z,51269.78
2023-08-10T17:42:02.595Z,51301.78
2023-08-10T17:47:06.600Z,51269.78
2023-08-10T17:52:10.341Z,51163.81
2023-08-10T17:57:15.688Z,51147.81
2023-08-10T18:02:19.614Z,51043.84
2023-08-10T18:07:23.324Z,51085.81
2023-08-10T18:12:28.587Z,51023.84
2023-08-10T18:17:33.384Z,50997.84
2023-08-10T18:22:37.251Z,50965.84
2023-08-10T18:27:42.290Z,50945.84
2023-08-10T18:32:46.199Z,50897.88
2023-08-10T18:37:50.524Z,50865.88
2023-08-10T18:42:57.612Z,50833.91
2023-08-10T18:48:02.418Z,50799.91
2023-08-10T18:53:08.180Z,50733.94
2023-08-10T18:58:15.245Z,50741.94
2023-08-10T19:03:18.971Z,50721.94
2023-08-10T19:08:22.760Z,50777.91
2023-08-10T19:13:28.091Z,50693.94
2023-08-10T19:18:32.423Z,50691.94
2023-08-10T19:23:37.335Z,50675.94
2023-08-10T19:28:43.293Z,50657.94
2023-08-10T19:33:47.488Z,50673.94
2023-08-10T19:38:51.856Z,50625.97
2023-08-10T19:43:57.623Z,50645.97
2023-08-10T19:49:01.999Z,50597.97
2023-08-10T19:54:06.897Z,50581.97
2023-08-10T19:59:18.792Z,50649.97
2023-08-10T20:20:13.388Z,50659.94
2023-08-10T20:25:19.122Z,50613.97
2023-08-10T20:30:23.125Z,50609.97
2023-08-10T21:23:02.964Z,50564.00
2023-08-10T22:40:28.624Z,50591.97
2023-08-10T22:45:33.043Z,50661.94
2023-08-10T22:50:37.390Z,50705.94
2023-08-10T22:55:42.993Z,50697.94
2023-08-10T23:00:47.303Z,50715.94
2023-08-10T23:05:51.607Z,50719.94
2023-08-10T23:10:57.079Z,50753.91
2023-08-10T23:16:01.272Z,50739.94
